Time;durP1;ratioP1;P1;durP2;ratioP2;P2;SDS_P1;SDS_P2;PMS_P1;PMS_P2;Temp;Humidity;BMP_temperature;BMP_pressure;BME280_temperature;BME280_humidity;BME280_pressure;Samples;Min_cycle;Max_cycle;Signal;HPM_P1;HPM_P2
2023/02/24 00:02:13;;;;;;;;;;;;;;;5.02;100.00;100243.81;5171046;27;825;-76
2023/02/24 00:04:40;;;;;;;;;;;;;;;5.05;100.00;100238.41;5170954;27;877;-76
2023/02/24 00:07:10;;;;;;;;;;;;;;;5.04;100.00;100236.84;5171022;27;828;-78
2023/02/24 00:09:39;;;;;;;;;;;;;;;5.04;100.00;100236.84;5152118;27;1200;-77
2023/02/24 00:12:10;;;;;;;;;;;;;;;5.01;100.00;100231.25;5170896;27;884;-77
2023/02/24 00:14:38;;;;;;;;;;;;;;;5.00;100.00;100226.94;5148403;27;1951;-77
2023/02/24 00:17:13;;;;;;;;;;;;;;;4.93;100.00;100221.28;5149749;27;822;-76
2023/02/24 00:19:39;;;;;;;;;;;;;;;4.84;100.00;100218.72;5148870;27;1038;-75
2023/02/24 00:22:17;;;;;;;;;;;;;;;4.79;100.00;100210.78;5148501;27;1069;-76
2023/02/24 00:24:46;;;;;;;;;;;;;;;4.70;100.00;100210.94;5148431;27;1252;-76
2023/02/24 00:27:21;;;;;;;;;;;;;;;4.62;100.00;100204.47;5138976;27;840;-76
2023/02/24 00:29:51;;;;;;;;;;;;;;;4.58;100.00;100202.81;5134710;27;825;-76
2023/02/24 00:32:18;;;;;;;;;;;;;;;4.51;100.00;100200.69;5135690;27;814;-75
2023/02/24 00:34:45;;;;;;;;;;;;;;;4.42;100.00;100195.38;5134241;27;1898;-75
2023/02/24 00:37:14;;;;;;;;;;;;;;;4.37;100.00;100200.31;5134424;27;1199;-74
2023/02/24 00:39:43;;;;;;;;;;;;;;;4.28;100.00;100186.78;5134529;27;1314;-75
2023/02/24 00:42:13;;;;;;;;;;;;;;;4.20;100.00;100187.75;5135421;27;834;-76
2023/02/24 00:44:42;;;;;;;;;;;;;;;4.09;100.00;100182.75;5135750;27;773;-73
2023/02/24 00:47:12;;;;;;;;;;;;;;;3.95;100.00;100179.66;5135256;27;853;-74
2023/02/24 00:49:42;;;;;;;;;;;;;;;3.85;100.00;100174.69;5134259;27;1504;-75
2023/02/24 00:52:13;;;;;;;;;;;;;;;3.70;100.00;100172.69;5134409;27;1150;-77
2023/02/24 00:54:42;;;;;;;;;;;;;;;3.48;100.00;100170.13;5135187;27;1971;-73
2023/02/24 00:57:09;;;;;;;;;;;;;;;3.43;100.00;100167.63;5135145;27;848;-76
2023/02/24 00:59:50;;;;;;;;;;;;;;;3.44;100.00;100166.50;5135177;27;810;-75
2023/02/24 01:02:17;;;;;;;;;;;;;;;3.43;100.00;100162.16;5133651;27;1140;-75
2023/02/24 01:04:43;;;;;;;;;;;;;;;3.50;100.00;100163.50;5134221;27;1158;-75
2023/02/24 01:07:15;;;;;;;;;;;;;;;3.58;100.00;100159.84;5134769;27;856;-76
2023/02/24 01:09:43;;;;;;;;;;;;;;;3.67;100.00;100161.31;5134047;27;1126;-75
2023/02/24 01:14:57;;;;;;;;;;;;;;;3.97;100.00;100157.41;5143720;27;1905;-75
2023/02/24 01:17:24;;;;;;;;;;;;;;;4.00;100.00;100154.00;5155528;27;957;-75
2023/02/24 01:19:50;;;;;;;;;;;;;;;4.11;100.00;100146.84;5137298;27;2036;-76
2023/02/24 01:22:18;;;;;;;;;;;;;;;4.17;100.00;100147.41;5137103;27;1068;-75
2023/02/24 01:24:45;;;;;;;;;;;;;;;4.20;100.00;100142.00;5136614;27;1057;-75
2023/02/24 01:27:12;;;;;;;;;;;;;;;4.26;100.00;100139.81;5155528;27;833;-76
2023/02/24 01:29:40;;;;;;;;;;;;;;;4.28;100.00;100134.78;5136975;27;1048;-76
2023/02/24 01:32:17;;;;;;;;;;;;;;;4.29;100.00;100128.97;5155295;27;829;-75
2023/02/24 01:34:44;;;;;;;;;;;;;;;4.34;100.00;100135.34;5155300;27;1949;-75
2023/02/24 01:37:15;;;;;;;;;;;;;;;4.37;100.00;100132.66;5154933;27;805;-75
2023/02/24 01:39:42;;;;;;;;;;;;;;;4.35;100.00;100123.22;5135843;27;1080;-76
2023/02/24 01:42:16;;;;;;;;;;;;;;;4.34;100.00;100121.66;5136496;27;777;-75
2023/02/24 01:44:44;;;;;;;;;;;;;;;4.24;100.00;100118.28;5136395;27;1039;-75
2023/02/24 01:47:15;;;;;;;;;;;;;;;4.17;100.00;100112.63;5154717;27;784;-75
2023/02/24 01:49:45;;;;;;;;;;;;;;;4.06;100.00;100108.84;5154924;27;821;-77
2023/02/24 01:52:16;;;;;;;;;;;;;;;4.01;100.00;100096.22;5154707;27;891;-76
2023/02/24 01:54:49;;;;;;;;;;;;;;;3.97;100.00;100095.31;5136491;27;1897;-76
2023/02/24 01:57:18;;;;;;;;;;;;;;;4.02;100.00;100089.59;5136688;27;1071;-75
2023/02/24 01:59:46;;;;;;;;;;;;;;;4.04;100.00;100084.56;5136362;27;1161;-75
2023/02/24 02:02:14;;;;;;;;;;;;;;;4.06;100.00;100078.75;5136221;27;1071;-75
2023/02/24 02:04:56;;;;;;;;;;;;;;;4.11;100.00;100088.63;5136554;27;1148;-75
2023/02/24 02:07:26;;;;;;;;;;;;;;;4.16;100.00;100085.63;5154759;27;828;-75
2023/02/24 02:09:53;;;;;;;;;;;;;;;4.26;100.00;100090.56;5154389;27;850;-75
2023/02/24 02:12:21;;;;;;;;;;;;;;;4.32;100.00;100093.84;5136327;27;1091;-75
2023/02/24 02:14:53;;;;;;;;;;;;;;;4.32;100.00;100091.91;5154004;27;1897;-75
2023/02/24 02:17:39;;;;;;;;;;;;;;;4.34;100.00;100095.06;5136081;27;1063;-75
2023/02/24 02:20:25;;;;;;;;;;;;;;;4.36;100.00;100095.53;5135633;27;1052;-75
2023/02/24 02:22:58;;;;;;;;;;;;;;;4.34;100.00;100086.88;5135605;27;2035;-75
2023/02/24 02:25:36;;;;;;;;;;;;;;;4.32;100.00;100086.44;5154082;27;849;-75
2023/02/24 02:28:12;;;;;;;;;;;;;;;4.24;100.00;100085.44;5135898;27;2137;-76
2023/02/24 02:30:54;;;;;;;;;;;;;;;4.17;100.00;100081.75;5154007;27;838;-75
2023/02/24 02:33:26;;;;;;;;;;;;;;;4.08;100.00;100085.44;5154158;27;727;-75
2023/02/24 02:36:12;;;;;;;;;;;;;;;4.05;100.00;100079.88;5135360;27;1935;-76
2023/02/24 02:38:48;;;;;;;;;;;;;;;4.05;100.00;100077.94;5135197;27;1164;-75
2023/02/24 02:41:22;;;;;;;;;;;;;;;4.08;100.00;100076.44;5153795;27;911;-75
2023/02/24 02:44:07;;;;;;;;;;;;;;;4.10;100.00;100079.63;5154020;27;790;-76
2023/02/24 02:46:37;;;;;;;;;;;;;;;4.09;100.00;100078.81;5153475;27;927;-75
2023/02/24 02:49:21;;;;;;;;;;;;;;;4.09;100.00;100073.34;5135452;27;818;-75
2023/02/24 02:51:50;;;;;;;;;;;;;;;4.05;100.00;100075.22;5135242;27;945;-76
2023/02/24 02:54:34;;;;;;;;;;;;;;;4.11;100.00;100074.94;5154384;27;1910;-75
2023/02/24 02:57:09;;;;;;;;;;;;;;;4.12;100.00;100074.59;5135004;27;1090;-75
2023/02/24 02:59:48;;;;;;;;;;;;;;;4.15;100.00;100073.88;5135324;27;1114;-77
2023/02/24 03:02:17;;;;;;;;;;;;;;;4.16;100.00;100077.41;5135194;27;1194;-76
2023/02/24 03:04:53;;;;;;;;;;;;;;;4.18;100.00;100078.66;5134863;27;1056;-76
2023/02/24 03:07:21;;;;;;;;;;;;;;;4.23;100.00;100080.34;5153808;27;859;-75
2023/02/24 03:09:55;;;;;;;;;;;;;;;4.29;100.00;100078.94;5135164;27;1180;-75
2023/02/24 03:12:22;;;;;;;;;;;;;;;4.30;100.00;100070.34;5134943;27;1083;-74
2023/02/24 03:14:52;;;;;;;;;;;;;;;4.29;100.00;100068.00;5131275;28;1976;-75
2023/02/24 03:17:21;;;;;;;;;;;;;;;4.22;100.00;100081.47;5132899;27;869;-76
2023/02/24 03:19:55;;;;;;;;;;;;;;;4.14;100.00;100076.97;5131734;28;1030;-75
2023/02/24 03:22:27;;;;;;;;;;;;;;;4.09;100.00;100078.03;5131642;28;1345;-76
2023/02/24 03:24:54;;;;;;;;;;;;;;;4.08;100.00;100079.19;5131469;28;1299;-75
2023/02/24 03:27:26;;;;;;;;;;;;;;;4.09;100.00;100064.34;5132674;27;816;-75
2023/02/24 03:30:08;;;;;;;;;;;;;;;4.13;100.00;100070.69;5131586;28;1246;-75
2023/02/24 03:32:54;;;;;;;;;;;;;;;4.18;100.00;100070.47;5131641;28;1060;-75
2023/02/24 03:35:22;;;;;;;;;;;;;;;4.21;100.00;100066.22;5129521;28;1885;-74
2023/02/24 03:37:52;;;;;;;;;;;;;;;4.26;100.00;100066.72;5131380;28;1224;-74
2023/02/24 03:40:19;;;;;;;;;;;;;;;4.31;100.00;100062.97;5132396;27;884;-74
2023/02/24 03:42:48;;;;;;;;;;;;;;;4.37;100.00;100058.78;5132827;27;805;-75
2023/02/24 03:45:15;;;;;;;;;;;;;;;4.40;100.00;100057.31;5132371;27;821;-75
2023/02/24 03:47:44;;;;;;;;;;;;;;;4.38;100.00;100052.16;5132681;27;875;-76
2023/02/24 03:50:18;;;;;;;;;;;;;;;4.38;100.00;100054.91;5131050;28;1153;-76
2023/02/24 03:52:50;;;;;;;;;;;;;;;4.38;100.00;100052.16;5132649;27;788;-75
2023/02/24 03:55:38;;;;;;;;;;;;;;;4.34;100.00;100043.09;5132772;27;1874;-75
2023/02/24 03:58:21;;;;;;;;;;;;;;;4.25;100.00;100048.75;5132187;28;836;-76
2023/02/24 04:00:54;;;;;;;;;;;;;;;4.17;100.00;100041.50;5131670;27;1209;-75
2023/02/24 04:03:24;;;;;;;;;;;;;;;4.12;100.00;100030.84;5135016;27;933;-74
2023/02/24 04:06:05;;;;;;;;;;;;;;;4.08;100.00;100035.41;5136222;27;797;-74
2023/02/24 04:08:37;;;;;;;;;;;;;;;4.02;100.00;100032.16;5136596;27;892;-75
2023/02/24 04:11:12;;;;;;;;;;;;;;;3.98;100.00;100028.53;5135035;27;1040;-75
2023/02/24 04:13:50;;;;;;;;;;;;;;;3.95;100.00;100020.22;5136051;27;884;-75
2023/02/24 04:16:27;;;;;;;;;;;;;;;3.96;100.00;100021.81;5134255;27;1980;-76
2023/02/24 04:19:01;;;;;;;;;;;;;;;3.99;100.00;100019.19;5134561;27;1235;-75
2023/02/24 04:21:30;;;;;;;;;;;;;;;4.05;100.00;100014.22;5135981;27;837;-76
2023/02/24 04:23:59;;;;;;;;;;;;;;;4.08;100.00;100019.00;5134337;27;1199;-76
2023/02/24 04:26:29;;;;;;;;;;;;;;;4.12;100.00;100019.06;5136424;27;738;-76
2023/02/24 04:28:56;;;;;;;;;;;;;;;4.14;100.00;100014.03;5135667;27;789;-75
2023/02/24 04:31:30;;;;;;;;;;;;;;;4.17;100.00;100013.34;5134267;27;1159;-76
2023/02/24 04:33:59;;;;;;;;;;;;;;;4.17;100.00;100005.94;5134364;27;1160;-75
2023/02/24 04:36:28;;;;;;;;;;;;;;;4.18;100.00;100007.53;5134306;27;1913;-76
2023/02/24 04:38:55;;;;;;;;;;;;;;;4.20;100.00;100010.69;5135689;27;754;-76
2023/02/24 04:41:24;;;;;;;;;;;;;;;4.23;100.00;100007.25;5135479;27;869;-76
2023/02/24 04:43:54;;;;;;;;;;;;;;;4.23;100.00;100001.00;5135692;27;853;-76
2023/02/24 04:46:26;;;;;;;;;;;;;;;4.21;100.00;99997.81;5135267;27;910;-76
2023/02/24 04:48:56;;;;;;;;;;;;;;;4.20;100.00;99997.00;5135367;27;813;-76
2023/02/24 04:51:26;;;;;;;;;;;;;;;4.19;100.00;99997.38;5133809;27;1158;-75
2023/02/24 04:54:02;;;;;;;;;;;;;;;4.18;100.00;99988.38;5133869;27;1260;-75
2023/02/24 04:56:31;;;;;;;;;;;;;;;4.20;100.00;99991.53;5134963;27;1936;-76
2023/02/24 04:58:58;;;;;;;;;;;;;;;4.23;100.00;99984.56;5134022;27;1233;-77
2023/02/24 05:01:30;;;;;;;;;;;;;;;4.26;100.00;99986.59;5134997;27;793;-76
2023/02/24 05:04:00;;;;;;;;;;;;;;;4.30;100.00;99990.22;5133738;27;852;-76
2023/02/24 05:06:30;;;;;;;;;;;;;;;4.37;100.00;99987.63;5134904;27;817;-75
2023/02/24 05:09:00;;;;;;;;;;;;;;;4.46;100.00;99990.19;5133466;27;1044;-76
2023/02/24 05:11:33;;;;;;;;;;;;;;;4.51;100.00;99984.44;5133767;27;1266;-76
2023/02/24 05:14:00;;;;;;;;;;;;;;;4.56;100.00;99989.63;5133353;27;1146;-75
2023/02/24 05:16:29;;;;;;;;;;;;;;;4.63;100.00;99989.78;5155368;27;1909;-75
2023/02/24 05:21:47;;;;;;;;;;;;;;;4.75;100.00;99996.28;5155764;27;605;-75
2023/02/24 05:24:16;;;;;;;;;;;;;;;4.80;100.00;99994.06;5155524;27;790;-75
2023/02/24 05:26:42;;;;;;;;;;;;;;;4.88;100.00;99992.25;5136834;27;1298;-74
2023/02/24 05:29:09;;;;;;;;;;;;;;;4.97;100.00;99994.78;5136534;27;1040;-75
2023/02/24 05:31:36;;;;;;;;;;;;;;;5.06;100.00;99995.38;5136688;27;1076;-74
2023/02/24 05:34:04;;;;;;;;;;;;;;;5.17;100.00;100001.88;5136406;27;872;-75
2023/02/24 05:36:33;;;;;;;;;;;;;;;5.27;100.00;100003.22;5154990;27;1894;-75
2023/02/24 05:39:11;;;;;;;;;;;;;;;5.37;100.00;99996.38;5155005;27;794;-75
2023/02/24 05:41:40;;;;;;;;;;;;;;;5.44;100.00;100004.72;5136619;27;1279;-76
2023/02/24 05:44:14;;;;;;;;;;;;;;;5.49;100.00;100001.69;5136657;27;1046;-76
2023/02/24 05:46:43;;;;;;;;;;;;;;;5.54;100.00;100012.34;5136371;27;1375;-76
2023/02/24 05:49:30;;;;;;;;;;;;;;;5.64;100.00;100003.53;5136436;27;1041;-76
2023/02/24 05:52:00;;;;;;;;;;;;;;;5.76;100.00;100007.25;5154695;27;868;-76
2023/02/24 05:54:34;;;;;;;;;;;;;;;5.81;100.00;100006.97;5135915;27;1877;-75
2023/02/24 05:57:02;;;;;;;;;;;;;;;5.88;100.00;100009.84;5136557;27;1072;-75
2023/02/24 05:59:31;;;;;;;;;;;;;;;5.90;100.00;100013.78;5154419;27;876;-76
2023/02/24 06:02:07;;;;;;;;;;;;;;;5.96;100.00;100021.75;5154494;27;809;-75
2023/02/24 06:04:44;;;;;;;;;;;;;;;6.13;100.00;100021.28;5154453;27;905;-75
2023/02/24 06:07:24;;;;;;;;;;;;;;;6.24;100.00;100021.44;5154771;27;758;-75
2023/02/24 06:09:55;;;;;;;;;;;;;;;6.42;100.00;100018.97;5154417;27;790;-76
